CHS weather

Charleston Air Force Base-International Airport
Charleston, South Carolina, United States

Public forecast

Using degrees Fahrenheit for public forecast. Weather courtesy of forecast.io.

METAR (pilot weather report)

Retrieved 2018/07/15 21:56 UTC (34 minutes ago):

KCHS 152156Z 15012KT 10SM SCT250 31/21 A3001 RMK AO2 SLP161 T03060211

TAF (pilot weather forecast)

Retrieved 2018/07/15 18:30 UTC (4 hours ago):

TAF KCHS 151729Z 1518/1618 08007KT P6SM SCT040 FM151900 14008KT P6SM SCT050 FM160000 VRB03KT P6SM FEW080 FM161400 17008KT P6SM SCT035